Time,TemperatureF,DewpointF,PressureIn,WindDirection,WindDirectionDegrees,WindSpeedMPH,WindSpeedGustMPH,Humidity,HourlyPrecipIn,Conditions,Clouds,dailyrainin,SoftwareType,DateUTC
2013-04-28 00:02:00,49.5,48.1,30.15,SW,230,0.0,0.0,95,0.00,,FEW,0.00,VWS V14.01,2013-04-28 07:02:00,
2013-04-28 00:07:00,49.5,48.1,30.15,SW,230,0.0,0.0,95,0.00,,FEW,0.00,VWS V14.01,2013-04-28 07:07:00,
2013-04-28 00:12:00,49.5,48.1,30.15,SW,230,0.0,0.0,95,0.00,,FEW,0.00,VWS V14.01,2013-04-28 07:12:00,
2013-04-28 00:17:00,49.5,48.1,30.15,SW,230,0.0,0.0,95,0.00,,FEW,0.00,VWS V14.01,2013-04-28 07:17:00,
2013-04-28 00:22:00,49.5,48.1,30.15,SW,230,0.0,0.0,95,0.00,,FEW,0.00,VWS V14.01,2013-04-28 07:22:00,
2013-04-28 00:27:00,49.5,48.1,30.15,SW,230,0.0,0.0,95,0.00,,FEW,0.00,VWS V14.01,2013-04-28 07:27:00,
2013-04-28 00:32:00,49.5,48.1,30.15,SW,230,0.0,0.0,95,0.00,,FEW,0.00,VWS V14.01,2013-04-28 07:32:00,
2013-04-28 00:37:00,49.5,48.1,30.15,SW,230,0.0,0.0,95,0.00,,FEW,0.00,VWS V14.01,2013-04-28 07:37:00,
2013-04-28 00:42:00,49.5,48.1,30.15,SW,230,0.0,0.0,95,0.00,,FEW,0.00,VWS V14.01,2013-04-28 07:42:00,
2013-04-28 00:47:00,49.5,48.1,30.15,SW,230,0.0,0.0,95,0.00,,FEW,0.00,VWS V14.01,2013-04-28 07:47:00,
2013-04-28 00:52:00,49.5,48.1,30.15,SW,230,0.0,0.0,95,0.00,,FEW,0.00,VWS V14.01,2013-04-28 07:52:00,
2013-04-28 00:57:00,49.5,48.1,30.15,SW,230,0.0,0.0,95,0.00,,FEW,0.00,VWS V14.01,2013-04-28 07:57:00,
2013-04-28 01:02:00,49.5,48.1,30.14,SW,230,0.0,0.0,95,0.00,,FEW,0.00,VWS V14.01,2013-04-28 08:02:00,
2013-04-28 01:07:00,49.4,48.0,30.14,SW,230,0.0,0.0,95,0.00,,FEW,0.00,VWS V14.01,2013-04-28 08:07:00,
2013-04-28 01:12:00,49.4,48.0,30.14,SW,230,0.0,0.0,95,0.00,,FEW,0.00,VWS V14.01,2013-04-28 08:12:00,
2013-04-28 01:17:00,49.2,47.8,30.15,SW,220,0.0,3.0,95,0.00,,FEW,0.00,VWS V14.01,2013-04-28 08:17:00,
2013-04-28 01:22:00,49.1,47.7,30.15,SW,220,0.0,3.0,95,0.00,,FEW,0.00,VWS V14.01,2013-04-28 08:22:00,
2013-04-28 01:27:00,49.1,47.7,30.15,SW,220,0.0,3.0,95,0.00,,FEW,0.00,VWS V14.01,2013-04-28 08:27:00,
2013-04-28 01:32:00,49.1,47.7,30.14,SW,220,0.0,0.0,95,0.00,,FEW,0.00,VWS V14.01,2013-04-28 08:32:00,
2013-04-28 01:37:00,49.1,47.7,30.14,SW,220,0.0,0.0,95,0.00,,FEW,0.00,VWS V14.01,2013-04-28 08:37:00,
2013-04-28 01:42:00,49.1,47.7,30.14,SW,220,0.0,0.0,95,0.00,,FEW,0.00,VWS V14.01,2013-04-28 08:42:00,
2013-04-28 01:47:00,49.1,47.7,30.14,SW,220,0.0,0.0,95,0.00,,FEW,0.00,VWS V14.01,2013-04-28 08:47:00,
2013-04-28 01:52:00,48.9,47.5,30.14,SW,220,0.0,0.0,95,0.00,,FEW,0.00,VWS V14.01,2013-04-28 08:52:00,
2013-04-28 01:57:00,48.9,47.5,30.14,SW,220,0.0,0.0,95,0.00,,FEW,0.00,VWS V14.01,2013-04-28 08:57:00,
2013-04-28 02:02:00,48.8,47.4,30.14,SW,220,0.0,0.0,95,0.00,,FEW,0.00,VWS V14.01,2013-04-28 09:02:00,
2013-04-28 02:07:00,48.6,47.2,30.14,SW,220,0.0,0.0,95,0.00,,FEW,0.00,VWS V14.01,2013-04-28 09:07:00,
2013-04-28 02:12:00,48.6,47.2,30.14,SW,220,0.0,0.0,95,0.00,,FEW,0.00,VWS V14.01,2013-04-28 09:12:00,
2013-04-28 02:17:00,48.5,47.1,30.14,SW,220,0.0,0.0,95,0.00,,FEW,0.00,VWS V14.01,2013-04-28 09:17:00,
2013-04-28 02:22:00,48.5,47.1,30.14,SW,220,0.0,0.0,95,0.00,,FEW,0.00,VWS V14.01,2013-04-28 09:22:00,
2013-04-28 02:27:00,48.5,47.1,30.14,SW,220,0.0,0.0,95,0.00,,FEW,0.00,VWS V14.01,2013-04-28 09:27:00,
2013-04-28 02:32:00,48.5,47.1,30.14,SW,220,0.0,1.0,95,0.00,,FEW,0.00,VWS V14.01,2013-04-28 09:32:00,
2013-04-28 02:37:00,48.5,47.1,30.14,SW,220,0.0,1.0,95,0.00,,FEW,0.00,VWS V14.01,2013-04-28 09:37:00,
2013-04-28 02:42:00,48.5,47.1,30.14,SW,220,0.0,1.0,95,0.00,,FEW,0.00,VWS V14.01,2013-04-28 09:42:00,
2013-04-28 02:47:00,48.6,47.2,30.14,SW,220,0.0,1.0,95,0.00,,FEW,0.00,VWS V14.01,2013-04-28 09:47:00,
2013-04-28 02:52:00,48.6,47.2,30.14,SW,220,0.0,1.0,95,0.00,,FEW,0.00,VWS V14.01,2013-04-28 09:52:00,
2013-04-28 02:57:00,48.6,47.2,30.14,SW,220,0.0,1.0,95,0.00,,FEW,0.00,VWS V14.01,2013-04-28 09:57:00,
2013-04-28 03:02:00,48.5,47.1,30.14,SW,220,0.0,2.0,95,0.00,,FEW,0.00,VWS V14.01,2013-04-28 10:02:00,
2013-04-28 03:07:00,48.5,47.1,30.14,SW,220,0.0,2.0,95,0.00,,FEW,0.00,VWS V14.01,2013-04-28 10:07:00,
2013-04-28 03:12:00,48.5,47.1,30.14,SW,220,0.0,2.0,95,0.00,,FEW,0.00,VWS V14.01,2013-04-28 10:12:00,
2013-04-28 03:17:00,48.6,47.0,30.14,SW,220,0.0,2.0,94,0.00,,FEW,0.00,VWS V14.01,2013-04-28 10:17:00,
2013-04-28 03:22:00,48.6,47.0,30.14,SW,220,0.0,3.0,94,0.00,,FEW,0.00,VWS V14.01,2013-04-28 10:22:00,
2013-04-28 03:28:00,48.6,47.0,30.14,SSW,203,0.0,3.0,94,0.00,,FEW,0.00,VWS V14.01,2013-04-28 10:28:00,
2013-04-28 03:33:00,48.8,47.2,30.13,South,169,3.0,3.0,94,0.00,,FEW,0.00,VWS V14.01,2013-04-28 10:33:00,
2013-04-28 03:38:00,48.9,47.0,30.13,South,170,0.0,3.0,93,0.00,,FEW,0.00,VWS V14.01,2013-04-28 10:38:00,
2013-04-28 03:43:00,48.9,47.0,30.13,South,170,0.0,3.0,93,0.00,,FEW,0.00,VWS V14.01,2013-04-28 10:43:00,
2013-04-28 03:48:00,48.9,47.0,30.13,South,170,0.0,3.0,93,0.00,,FEW,0.00,VWS V14.01,2013-04-28 10:48:00,
2013-04-28 03:53:00,48.9,47.0,30.13,South,174,0.0,3.0,93,0.00,,FEW,0.00,VWS V14.01,2013-04-28 10:53:00,
2013-04-28 03:58:00,48.9,47.0,30.13,SSE,156,0.0,3.0,93,0.00,,FEW,0.00,VWS V14.01,2013-04-28 10:58:00,
2013-04-28 04:03:00,48.9,47.0,30.13,South,184,0.0,3.0,93,0.00,,FEW,0.00,VWS V14.01,2013-04-28 11:03:00,
2013-04-28 04:08:00,49.1,47.2,30.13,South,184,1.0,3.0,93,0.00,,FEW,0.00,VWS V14.01,2013-04-28 11:08:00,
2013-04-28 04:13:00,49.2,47.3,30.13,SSW,195,2.0,4.0,93,0.00,,FEW,0.00,VWS V14.01,2013-04-28 11:13:00,
2013-04-28 04:18:00,49.2,47.3,30.13,SSW,194,3.0,4.0,93,0.00,,FEW,0.00,VWS V14.01,2013-04-28 11:18:00,
2013-04-28 04:23:00,49.2,47.3,30.13,SSW,208,0.0,4.0,93,0.00,,FEW,0.00,VWS V14.01,2013-04-28 11:23:00,
2013-04-28 04:28:00,49.1,47.2,30.13,SSW,208,0.0,4.0,93,0.00,,FEW,0.00,VWS V14.01,2013-04-28 11:28:00,
2013-04-28 04:33:00,48.9,46.7,30.13,South,187,3.0,5.0,92,0.00,,FEW,0.00,VWS V14.01,2013-04-28 11:33:00,
2013-04-28 04:38:00,48.9,46.7,30.13,South,187,0.0,5.0,92,0.00,,FEW,0.00,VWS V14.01,2013-04-28 11:38:00,
2013-04-28 04:43:00,48.9,46.7,30.13,South,189,0.0,5.0,92,0.00,,FEW,0.00,VWS V14.01,2013-04-28 11:43:00,
2013-04-28 04:48:00,49.2,47.0,30.13,SE,128,4.0,8.0,92,0.00,,FEW,0.00,VWS V14.01,2013-04-28 11:48:00,
2013-04-28 04:53:00,49.4,47.5,30.13,South,177,3.0,8.0,93,0.00,,FEW,0.00,VWS V14.01,2013-04-28 11:53:00,
2013-04-28 04:58:00,49.2,47.0,30.13,South,187,1.0,8.0,92,0.00,,FEW,0.00,VWS V14.01,2013-04-28 11:58:00,
2013-04-28 05:03:00,49.1,46.9,30.12,South,170,3.0,4.0,92,0.00,,FEW,0.00,VWS V14.01,2013-04-28 12:03:00,
2013-04-28 05:08:00,49.1,47.2,30.12,South,191,1.0,4.0,93,0.00,,FEW,0.00,VWS V14.01,2013-04-28 12:08:00,
2013-04-28 05:13:00,48.8,46.9,30.12,South,186,0.0,4.0,93,0.00,,FEW,0.00,VWS V14.01,2013-04-28 12:13:00,
2013-04-28 05:18:00,48.8,46.9,30.12,South,181,3.0,5.0,93,0.00,,FEW,0.00,VWS V14.01,2013-04-28 12:18:00,
2013-04-28 05:23:00,49.1,47.2,30.12,South,181,1.0,5.0,93,0.00,,FEW,0.00,VWS V14.01,2013-04-28 12:23:00,
2013-04-28 05:28:00,48.8,46.9,30.12,South,187,1.0,5.0,93,0.00,,FEW,0.00,VWS V14.01,2013-04-28 12:28:00,
2013-04-28 05:33:00,48.8,46.9,30.12,South,187,3.0,4.0,93,0.00,,FEW,0.00,VWS V14.01,2013-04-28 12:33:00,
2013-04-28 05:38:00,48.8,46.9,30.12,South,187,0.0,4.0,93,0.00,,FEW,0.00,VWS V14.01,2013-04-28 12:38:00,
2013-04-28 05:43:00,48.8,46.9,30.12,SSW,203,1.0,4.0,93,0.00,,FEW,0.00,VWS V14.01,2013-04-28 12:43:00,
2013-04-28 05:48:00,48.8,46.9,30.12,SSW,203,1.0,4.0,93,0.00,,FEW,0.00,VWS V14.01,2013-04-28 12:48:00,
2013-04-28 05:53:00,48.8,46.9,30.12,SSE,151,0.0,4.0,93,0.00,,FEW,0.00,VWS V14.01,2013-04-28 12:53:00,
2013-04-28 05:58:00,48.8,46.9,30.12,South,181,1.0,4.0,93,0.00,,FEW,0.00,VWS V14.01,2013-04-28 12:58:00,
2013-04-28 06:03:00,48.6,46.7,30.12,South,185,4.0,4.0,93,0.00,,FEW,0.00,VWS V14.01,2013-04-28 13:03:00,
2013-04-28 06:08:00,48.5,46.6,30.12,SSW,200,0.0,4.0,93,0.00,,FEW,0.00,VWS V14.01,2013-04-28 13:08:00,
2013-04-28 06:13:00,48.5,46.6,30.12,SSW,200,0.0,4.0,93,0.00,,FEW,0.00,VWS V14.01,2013-04-28 13:13:00,
2013-04-28 06:18:00,48.3,46.4,30.12,SSW,200,0.0,4.0,93,0.00,,FEW,0.00,VWS V14.01,2013-04-28 13:18:00,
2013-04-28 06:23:00,48.5,46.6,30.12,SSW,200,0.0,4.0,93,0.00,,FEW,0.00,VWS V14.01,2013-04-28 13:23:00,
2013-04-28 06:28:00,48.3,46.4,30.12,SSW,200,0.0,4.0,93,0.00,,FEW,0.00,VWS V14.01,2013-04-28 13:28:00,
2013-04-28 06:33:00,48.3,46.4,30.12,SSW,200,0.0,1.0,93,0.00,,FEW,0.00,VWS V14.01,2013-04-28 13:33:00,
2013-04-28 06:39:00,48.3,46.4,30.12,SSW,200,0.0,1.0,93,0.00,,FEW,0.00,VWS V14.01,2013-04-28 13:39:00,
2013-04-28 06:44:00,48.3,46.7,30.12,SSW,200,0.0,1.0,94,0.00,,FEW,0.00,VWS V14.01,2013-04-28 13:44:00,
2013-04-28 06:49:00,48.5,46.9,30.12,SSW,200,0.0,1.0,94,0.00,,FEW,0.00,VWS V14.01,2013-04-28 13:49:00,
2013-04-28 06:54:00,48.5,46.9,30.12,SSW,200,0.0,1.0,94,0.00,,FEW,0.00,VWS V14.01,2013-04-28 13:54:00,
2013-04-28 06:59:00,48.5,46.9,30.13,SSW,200,0.0,2.0,94,0.00,,FEW,0.00,VWS V14.01,2013-04-28 13:59:00,
2013-04-28 07:04:00,48.6,47.0,30.13,SSW,200,0.0,2.0,94,0.00,,FEW,0.00,VWS V14.01,2013-04-28 14:04:00,
2013-04-28 07:09:00,48.8,47.2,30.13,SSW,194,2.0,3.0,94,0.00,,FEW,0.00,VWS V14.01,2013-04-28 14:09:00,
2013-04-28 07:14:00,48.8,47.2,30.13,SE,128,0.0,4.0,94,0.00,,FEW,0.00,VWS V14.01,2013-04-28 14:14:00,
2013-04-28 07:19:00,48.9,47.2,30.13,SE,128,0.0,4.0,94,0.00,,FEW,0.00,VWS V14.01,2013-04-28 14:19:00,
2013-04-28 07:24:00,48.8,46.9,30.13,SSE,162,0.0,4.0,93,0.00,,FEW,0.00,VWS V14.01,2013-04-28 14:24:00,
2013-04-28 07:29:00,48.8,46.9,30.13,SW,225,1.0,4.0,93,0.00,,FEW,0.00,VWS V14.01,2013-04-28 14:29:00,
2013-04-28 07:34:00,48.8,46.9,30.13,SSW,208,0.0,3.0,93,0.00,,FEW,0.00,VWS V14.01,2013-04-28 14:34:00,
2013-04-28 07:39:00,48.8,46.9,30.13,SSW,193,1.0,4.0,93,0.00,,FEW,0.00,VWS V14.01,2013-04-28 14:39:00,
2013-04-28 07:44:00,48.9,47.0,30.13,SSW,193,3.0,4.0,93,0.00,,FEW,0.00,VWS V14.01,2013-04-28 14:44:00,
2013-04-28 07:49:00,49.1,46.9,30.13,South,178,3.0,4.0,92,0.00,,FEW,0.00,VWS V14.01,2013-04-28 14:49:00,
2013-04-28 07:54:00,49.1,46.9,30.13,SSE,158,1.0,4.0,92,0.00,,FEW,0.00,VWS V14.01,2013-04-28 14:54:00,
2013-04-28 07:59:00,49.4,47.2,30.13,South,188,3.0,4.0,92,0.00,,FEW,0.00,VWS V14.01,2013-04-28 14:59:00,
2013-04-28 08:04:00,49.5,47.0,30.13,South,189,3.0,11.0,91,0.00,,FEW,0.00,VWS V14.01,2013-04-28 15:04:00,
2013-04-28 08:09:00,49.6,46.8,30.13,South,183,3.0,11.0,90,0.00,,FEW,0.00,VWS V14.01,2013-04-28 15:09:00,
2013-04-28 08:14:00,49.8,47.0,30.13,South,187,1.0,11.0,90,0.00,,FEW,0.00,VWS V14.01,2013-04-28 15:14:00,
2013-04-28 08:19:00,49.9,46.5,30.13,SSW,193,0.0,12.0,88,0.00,,FEW,0.00,VWS V14.01,2013-04-28 15:19:00,
2013-04-28 08:24:00,50.1,47.0,30.13,South,188,5.0,12.0,89,0.00,,FEW,0.00,VWS V14.01,2013-04-28 15:24:00,
2013-04-28 08:30:00,50.1,46.7,30.14,SSW,195,4.0,5.0,88,0.00,,FEW,0.00,VWS V14.01,2013-04-28 15:30:00,
2013-04-28 08:35:00,50.1,47.0,30.14,South,179,2.0,5.0,89,0.00,,FEW,0.00,VWS V14.01,2013-04-28 15:35:00,
2013-04-28 08:40:00,50.1,47.0,30.14,South,191,3.0,5.0,89,0.00,,FEW,0.00,VWS V14.01,2013-04-28 15:40:00,
2013-04-28 08:45:00,49.8,46.4,30.14,South,180,2.0,7.0,88,0.00,,FEW,0.00,VWS V14.01,2013-04-28 15:45:00,
2013-04-28 08:50:00,49.8,46.4,30.14,South,187,4.0,7.0,88,0.00,,FEW,0.00,VWS V14.01,2013-04-28 15:50:00,
2013-04-28 08:55:00,49.8,46.4,30.14,South,189,5.0,7.0,88,0.00,,FEW,0.00,VWS V14.01,2013-04-28 15:55:00,
2013-04-28 09:00:00,49.8,46.4,30.14,South,172,0.0,0.0,88,0.00,,FEW,0.00,VWS V14.01,2013-04-28 16:00:00,
2013-04-28 09:05:00,49.6,46.2,30.14,South,178,3.0,4.0,88,0.00,,FEW,0.00,VWS V14.01,2013-04-28 16:05:00,
2013-04-28 09:10:00,49.8,46.4,30.14,South,174,0.0,4.0,88,0.00,,FEW,0.00,VWS V14.01,2013-04-28 16:10:00,
2013-04-28 09:15:00,49.8,46.4,30.14,South,178,1.0,4.0,88,0.00,,FEW,0.00,VWS V14.01,2013-04-28 16:15:00,
2013-04-28 09:20:00,50.1,46.7,30.14,South,176,5.0,5.0,88,0.00,,FEW,0.00,VWS V14.01,2013-04-28 16:20:00,
2013-04-28 09:25:00,50.1,46.4,30.14,South,188,2.0,5.0,87,0.00,,FEW,0.00,VWS V14.01,2013-04-28 16:25:00,
2013-04-28 09:30:00,50.1,46.1,30.14,South,187,4.0,5.0,86,0.00,,FEW,0.00,VWS V14.01,2013-04-28 16:30:00,
2013-04-28 09:35:00,50.1,46.4,30.14,South,187,4.0,5.0,87,0.00,,FEW,0.00,VWS V14.01,2013-04-28 16:35:00,
2013-04-28 09:40:00,49.9,45.9,30.14,South,174,1.0,6.0,86,0.00,,FEW,0.00,VWS V14.01,2013-04-28 16:40:00,
2013-04-28 09:45:00,50.1,46.4,30.14,South,184,3.0,6.0,87,0.00,,FEW,0.00,VWS V14.01,2013-04-28 16:45:00,
2013-04-28 09:50:00,50.2,46.5,30.14,South,180,1.0,6.0,87,0.00,,FEW,0.00,VWS V14.01,2013-04-28 16:50:00,
2013-04-28 09:55:00,50.1,46.1,30.14,South,191,3.0,11.0,86,0.00,,FEW,0.00,VWS V14.01,2013-04-28 16:55:00,
2013-04-28 10:00:00,50.4,46.4,30.14,SE,132,2.0,6.0,86,0.00,,FEW,0.00,VWS V14.01,2013-04-28 17:00:00,
2013-04-28 10:05:00,50.7,46.0,30.14,South,189,3.0,6.0,84,0.00,,FEW,0.00,VWS V14.01,2013-04-28 17:05:00,
2013-04-28 10:10:00,50.8,46.2,30.14,South,185,0.0,10.0,84,0.00,,FEW,0.00,VWS V14.01,2013-04-28 17:10:00,
2013-04-28 10:15:00,50.8,45.8,30.14,SSW,193,3.0,10.0,83,0.00,,FEW,0.00,VWS V14.01,2013-04-28 17:15:00,
2013-04-28 10:20:00,51.1,46.1,30.14,South,181,3.0,10.0,83,0.00,,FEW,0.00,VWS V14.01,2013-04-28 17:20:00,
2013-04-28 10:25:00,51.1,45.8,30.14,South,176,3.0,10.0,82,0.00,,FEW,0.00,VWS V14.01,2013-04-28 17:25:00,
2013-04-28 10:30:00,51.1,45.5,30.14,SSW,193,8.0,8.0,81,0.00,,FEW,0.00,VWS V14.01,2013-04-28 17:30:00,
2013-04-28 10:35:00,51.4,46.1,30.14,South,171,2.0,10.0,82,0.00,,FEW,0.00,VWS V14.01,2013-04-28 17:35:00,
2013-04-28 10:40:00,51.4,45.8,30.14,South,185,4.0,10.0,81,0.00,,FEW,0.00,VWS V14.01,2013-04-28 17:40:00,
2013-04-28 10:46:00,51.4,45.1,30.14,SSW,201,5.0,13.0,79,0.00,,FEW,0.00,VWS V14.01,2013-04-28 17:46:00,
2013-04-28 10:51:00,51.3,44.7,30.14,ESE,104,2.0,13.0,78,0.00,,FEW,0.00,VWS V14.01,2013-04-28 17:51:00,
2013-04-28 10:56:00,51.7,45.7,30.14,South,183,5.0,13.0,80,0.00,,FEW,0.00,VWS V14.01,2013-04-28 17:56:00,
2013-04-28 11:01:00,52.0,45.4,30.14,ESE,123,4.0,6.0,78,0.00,,FEW,0.00,VWS V14.01,2013-04-28 18:01:00,
2013-04-28 11:06:00,52.6,46.3,30.14,South,176,4.0,12.0,79,0.00,,FEW,0.00,VWS V14.01,2013-04-28 18:06:00,
2013-04-28 11:11:00,52.6,45.3,30.14,ESE,117,9.0,12.0,76,0.00,,FEW,0.00,VWS V14.01,2013-04-28 18:11:00,
2013-04-28 11:16:00,52.6,44.9,30.13,SE,140,3.0,12.0,75,0.00,,FEW,0.00,VWS V14.01,2013-04-28 18:16:00,
2013-04-28 11:21:00,52.8,44.4,30.13,SSW,192,6.0,12.0,73,0.00,,FEW,0.00,VWS V14.01,2013-04-28 18:21:00,
2013-04-28 11:26:00,53.2,43.3,30.13,South,189,10.0,15.0,69,0.00,,FEW,0.00,VWS V14.01,2013-04-28 18:26:00,
2013-04-28 11:31:00,53.5,42.8,30.13,South,187,6.0,6.0,67,0.00,,FEW,0.00,VWS V14.01,2013-04-28 18:31:00,
2013-04-28 11:36:00,53.6,42.5,30.13,South,188,7.0,9.0,66,0.00,,FEW,0.00,VWS V14.01,2013-04-28 18:36:00,
2013-04-28 11:41:00,53.5,42.0,30.13,South,179,4.0,9.0,65,0.00,,FEW,0.00,VWS V14.01,2013-04-28 18:41:00,
2013-04-28 11:46:00,52.9,43.8,30.13,SE,137,2.0,14.0,71,0.00,,FEW,0.00,VWS V14.01,2013-04-28 18:46:00,
2013-04-28 11:51:00,52.2,44.2,30.13,South,185,6.0,14.0,74,0.00,,FEW,0.00,VWS V14.01,2013-04-28 18:51:00,
2013-04-28 11:56:00,52.2,43.1,30.13,SSW,195,1.0,14.0,71,0.00,,FEW,0.00,VWS V14.01,2013-04-28 18:56:00,
2013-04-28 12:01:00,53.1,44.7,30.13,ESE,121,4.0,4.0,73,0.00,,FEW,0.00,VWS V14.01,2013-04-28 19:01:00,
2013-04-28 12:06:00,53.5,44.7,30.13,SSW,195,1.0,10.0,72,0.00,,FEW,0.00,VWS V14.01,2013-04-28 19:06:00,
2013-04-28 12:11:00,53.5,45.4,30.13,SW,234,1.0,10.0,74,0.00,,FEW,0.00,VWS V14.01,2013-04-28 19:11:00,
2013-04-28 12:16:00,52.8,43.7,30.13,East,95,6.0,16.0,71,0.00,,FEW,0.00,VWS V14.01,2013-04-28 19:16:00,
2013-04-28 12:21:00,51.6,43.6,30.13,SSW,196,6.0,16.0,74,0.00,,FEW,0.00,VWS V14.01,2013-04-28 19:21:00,
2013-04-28 12:26:00,50.7,43.4,30.13,SSW,207,5.0,16.0,76,0.00,,FEW,0.00,VWS V14.01,2013-04-28 19:26:00,
2013-04-28 12:31:00,50.5,42.9,30.13,South,187,6.0,9.0,75,0.00,,FEW,0.00,VWS V14.01,2013-04-28 19:31:00,
2013-04-28 12:37:00,50.8,43.2,30.13,SSW,198,6.0,9.0,75,0.00,,FEW,0.00,VWS V14.01,2013-04-28 19:37:00,
2013-04-28 12:42:00,51.7,43.7,30.13,SSW,199,3.0,10.0,74,0.00,,FEW,0.00,VWS V14.01,2013-04-28 19:42:00,
2013-04-28 12:47:00,52.5,43.4,30.13,South,186,6.0,11.0,71,0.00,,FEW,0.00,VWS V14.01,2013-04-28 19:47:00,
2013-04-28 12:52:00,53.1,44.0,30.13,South,184,4.0,11.0,71,0.00,,FEW,0.00,VWS V14.01,2013-04-28 19:52:00,
2013-04-28 12:57:00,53.3,42.6,30.13,South,185,6.0,13.0,67,0.00,,FEW,0.00,VWS V14.01,2013-04-28 19:57:00,
2013-04-28 13:02:00,53.8,42.3,30.12,South,191,6.0,14.0,65,0.00,,FEW,0.00,VWS V14.01,2013-04-28 20:02:00,
2013-04-28 13:07:00,54.2,43.9,30.12,South,172,3.0,14.0,68,0.00,,FEW,0.00,VWS V14.01,2013-04-28 20:07:00,
2013-04-28 13:12:00,54.4,42.9,30.12,South,182,3.0,14.0,65,0.00,,FEW,0.00,VWS V14.01,2013-04-28 20:12:00,
2013-04-28 13:17:00,54.7,42.8,30.11,SSW,199,4.0,14.0,64,0.00,,FEW,0.00,VWS V14.01,2013-04-28 20:17:00,
2013-04-28 13:22:00,55.0,42.7,30.11,South,183,6.0,14.0,63,0.00,,FEW,0.00,VWS V14.01,2013-04-28 20:22:00,
2013-04-28 13:27:00,55.4,41.8,30.11,SE,126,0.0,14.0,60,0.00,,FEW,0.00,VWS V14.01,2013-04-28 20:27:00,
2013-04-28 13:32:00,55.7,41.2,30.11,SSW,195,10.0,14.0,58,0.00,,FEW,0.00,VWS V14.01,2013-04-28 20:32:00,
2013-04-28 13:37:00,55.3,40.3,30.11,SSE,166,9.0,14.0,57,0.00,,FEW,0.00,VWS V14.01,2013-04-28 20:37:00,
2013-04-28 13:42:00,55.3,39.9,30.11,South,185,4.0,14.0,56,0.00,,FEW,0.00,VWS V14.01,2013-04-28 20:42:00,
2013-04-28 13:47:00,55.1,40.2,30.11,South,191,8.0,14.0,57,0.00,,FEW,0.00,VWS V14.01,2013-04-28 20:47:00,
2013-04-28 13:52:00,55.0,40.5,30.11,SE,130,2.0,14.0,58,0.00,,FEW,0.00,VWS V14.01,2013-04-28 20:52:00,
2013-04-28 13:57:00,55.3,41.2,30.11,South,169,1.0,14.0,59,0.00,,FEW,0.00,VWS V14.01,2013-04-28 20:57:00,
2013-04-28 14:02:00,55.7,39.8,30.12,South,190,13.0,13.0,55,0.00,,FEW,0.00,VWS V14.01,2013-04-28 21:02:00,
2013-04-28 14:07:00,56.2,38.3,30.12,SE,127,2.0,18.0,51,0.00,,FEW,0.00,VWS V14.01,2013-04-28 21:07:00,
2013-04-28 14:12:00,56.2,38.3,30.12,ESE,107,0.0,18.0,51,0.00,,FEW,0.00,VWS V14.01,2013-04-28 21:12:00,
2013-04-28 14:17:00,56.5,37.6,30.11,SSE,166,9.0,18.0,49,0.00,,FEW,0.00,VWS V14.01,2013-04-28 21:17:00,
2013-04-28 14:22:00,56.0,39.6,30.11,South,188,8.0,23.0,54,0.00,,FEW,0.00,VWS V14.01,2013-04-28 21:22:00,
2013-04-28 14:27:00,55.7,39.8,30.11,SSE,165,10.0,23.0,55,0.00,,FEW,0.00,VWS V14.01,2013-04-28 21:27:00,
2013-04-28 14:32:00,55.9,40.5,30.11,SSW,196,3.0,10.0,56,0.00,,FEW,0.00,VWS V14.01,2013-04-28 21:32:00,
2013-04-28 14:37:00,56.0,39.1,30.11,South,188,14.0,16.0,53,0.00,,FEW,0.00,VWS V14.01,2013-04-28 21:37:00,
2013-04-28 14:42:00,56.3,38.9,30.11,SE,130,5.0,16.0,52,0.00,,FEW,0.00,VWS V14.01,2013-04-28 21:42:00,
2013-04-28 14:47:00,57.0,40.5,30.11,South,176,4.0,16.0,54,0.00,,FEW,0.00,VWS V14.01,2013-04-28 21:47:00,
2013-04-28 14:52:00,56.9,40.0,30.11,South,170,4.0,16.0,53,0.00,,FEW,0.00,VWS V14.01,2013-04-28 21:52:00,
2013-04-28 14:58:00,56.5,38.6,30.11,South,188,6.0,17.0,51,0.00,,FEW,0.00,VWS V14.01,2013-04-28 21:58:00,
2013-04-28 15:03:00,56.3,38.4,30.11,South,191,3.0,11.0,51,0.00,,FEW,0.00,VWS V14.01,2013-04-28 22:03:00,
2013-04-28 15:08:00,56.9,39.0,30.11,SSW,195,6.0,11.0,51,0.00,,FEW,0.00,VWS V14.01,2013-04-28 22:08:00,
2013-04-28 15:13:00,57.5,39.0,30.11,SSE,168,6.0,12.0,50,0.00,,FEW,0.00,VWS V14.01,2013-04-28 22:13:00,
2013-04-28 15:18:00,57.6,37.5,30.10,SW,216,3.0,12.0,47,0.00,,FEW,0.00,VWS V14.01,2013-04-28 22:18:00,
2013-04-28 15:23:00,57.5,38.5,30.10,South,190,6.0,14.0,49,0.00,,FEW,0.00,VWS V14.01,2013-04-28 22:23:00,
2013-04-28 15:28:00,57.5,39.0,30.10,SSW,201,10.0,14.0,50,0.00,,FEW,0.00,VWS V14.01,2013-04-28 22:28:00,
2013-04-28 15:33:00,57.2,38.8,30.10,SSW,197,2.0,13.0,50,0.00,,FEW,0.00,VWS V14.01,2013-04-28 22:33:00,
2013-04-28 15:38:00,57.0,38.6,30.10,SSE,168,10.0,13.0,50,0.00,,FEW,0.00,VWS V14.01,2013-04-28 22:38:00,
2013-04-28 15:43:00,56.9,37.4,30.10,South,191,14.0,14.0,48,0.00,,FEW,0.00,VWS V14.01,2013-04-28 22:43:00,
2013-04-28 15:48:00,56.9,37.4,30.09,South,176,10.0,14.0,48,0.00,,FEW,0.00,VWS V14.01,2013-04-28 22:48:00,
2013-04-28 15:53:00,56.6,36.6,30.09,South,172,12.0,14.0,47,0.00,,FEW,0.00,VWS V14.01,2013-04-28 22:53:00,
2013-04-28 15:58:00,56.5,37.6,30.09,ESE,112,9.0,15.0,49,0.00,,FEW,0.00,VWS V14.01,2013-04-28 22:58:00,
2013-04-28 16:03:00,56.6,38.2,30.09,South,188,9.0,12.0,50,0.00,,FEW,0.00,VWS V14.01,2013-04-28 23:03:00,
2013-04-28 16:08:00,56.6,37.7,30.09,South,188,10.0,12.0,49,0.00,,FEW,0.00,VWS V14.01,2013-04-28 23:08:00,
2013-04-28 16:13:00,56.5,38.1,30.09,South,191,12.0,14.0,50,0.00,,FEW,0.00,VWS V14.01,2013-04-28 23:13:00,
2013-04-28 16:18:00,56.3,36.3,30.08,South,180,7.0,16.0,47,0.00,,FEW,0.00,VWS V14.01,2013-04-28 23:18:00,
2013-04-28 16:23:00,56.0,37.1,30.08,South,183,1.0,16.0,49,0.00,,FEW,0.00,VWS V14.01,2013-04-28 23:23:00,
2013-04-28 16:28:00,56.0,39.6,30.08,SSW,209,4.0,16.0,54,0.00,,FEW,0.00,VWS V14.01,2013-04-28 23:28:00,
2013-04-28 16:33:00,56.0,38.2,30.08,South,183,3.0,9.0,51,0.00,,FEW,0.00,VWS V14.01,2013-04-28 23:33:00,
2013-04-28 16:38:00,56.2,38.3,30.08,SSE,159,4.0,12.0,51,0.00,,FEW,0.00,VWS V14.01,2013-04-28 23:38:00,
2013-04-28 16:43:00,56.0,37.6,30.08,SSE,162,4.0,12.0,50,0.00,,FEW,0.00,VWS V14.01,2013-04-28 23:43:00,
2013-04-28 16:48:00,55.9,38.0,30.08,South,189,2.0,12.0,51,0.00,,FEW,0.00,VWS V14.01,2013-04-28 23:48:00,
2013-04-28 16:53:00,56.2,39.3,30.08,South,180,2.0,12.0,53,0.00,,FEW,0.00,VWS V14.01,2013-04-28 23:53:00,
2013-04-28 16:58:00,56.0,40.1,30.08,East,85,4.0,12.0,55,0.00,,FEW,0.00,VWS V14.01,2013-04-28 23:58:00,
2013-04-28 17:03:00,55.9,39.5,30.08,SE,143,4.0,9.0,54,0.00,,FEW,0.00,VWS V14.01,2013-04-29 00:03:00,
2013-04-28 17:08:00,55.6,38.8,30.08,South,170,2.0,9.0,53,0.00,,FEW,0.00,VWS V14.01,2013-04-29 00:08:00,
2013-04-28 17:13:00,55.6,39.2,30.08,SSW,193,5.0,9.0,54,0.00,,FEW,0.00,VWS V14.01,2013-04-29 00:13:00,
2013-04-28 17:18:00,55.4,39.0,30.08,South,188,3.0,9.0,54,0.00,,FEW,0.00,VWS V14.01,2013-04-29 00:18:00,
2013-04-28 17:23:00,55.3,39.9,30.08,South,191,3.0,9.0,56,0.00,,FEW,0.00,VWS V14.01,2013-04-29 00:23:00,
2013-04-28 17:28:00,55.3,40.8,30.08,ESE,112,3.0,9.0,58,0.00,,FEW,0.00,VWS V14.01,2013-04-29 00:28:00,
2013-04-28 17:33:00,55.3,39.4,30.07,South,189,3.0,6.0,55,0.00,,FEW,0.00,VWS V14.01,2013-04-29 00:33:00,
2013-04-28 17:38:00,55.1,38.8,30.07,South,181,4.0,7.0,54,0.00,,FEW,0.00,VWS V14.01,2013-04-29 00:38:00,
2013-04-28 17:43:00,55.1,39.2,30.07,SE,131,1.0,7.0,55,0.00,,FEW,0.00,VWS V14.01,2013-04-29 00:43:00,
2013-04-28 17:48:00,55.0,40.1,30.06,South,191,2.0,7.0,57,0.00,,FEW,0.00,VWS V14.01,2013-04-29 00:48:00,
2013-04-28 17:54:00,55.0,40.5,30.06,South,190,4.0,7.0,58,0.00,,FEW,0.00,VWS V14.01,2013-04-29 00:54:00,
2013-04-28 17:59:00,54.8,39.4,30.06,SSW,203,3.0,7.0,56,0.00,,FEW,0.00,VWS V14.01,2013-04-29 00:59:00,
2013-04-28 18:04:00,54.8,39.9,30.05,SSW,195,1.0,4.0,57,0.00,,FEW,0.00,VWS V14.01,2013-04-29 01:04:00,
2013-04-28 18:09:00,54.8,39.9,30.05,SSW,209,2.0,4.0,57,0.00,,FEW,0.00,VWS V14.01,2013-04-29 01:09:00,
2013-04-28 18:14:00,54.8,40.3,30.05,East,99,0.0,4.0,58,0.00,,FEW,0.00,VWS V14.01,2013-04-29 01:14:00,
2013-04-28 18:19:00,54.7,39.8,30.05,SE,124,2.0,7.0,57,0.00,,FEW,0.00,VWS V14.01,2013-04-29 01:19:00,
2013-04-28 18:24:00,54.5,40.0,30.05,South,188,3.0,7.0,58,0.00,,FEW,0.00,VWS V14.01,2013-04-29 01:24:00,
2013-04-28 18:29:00,54.4,40.0,30.04,SE,138,1.0,7.0,58,0.00,,FEW,0.00,VWS V14.01,2013-04-29 01:29:00,
2013-04-28 18:34:00,54.2,40.2,30.04,South,185,3.0,4.0,59,0.00,,FEW,0.00,VWS V14.01,2013-04-29 01:34:00,
2013-04-28 18:39:00,54.1,40.5,30.04,SE,133,1.0,4.0,60,0.00,,FEW,0.00,VWS V14.01,2013-04-29 01:39:00,
2013-04-28 18:44:00,53.9,41.2,30.03,South,183,0.0,5.0,62,0.00,,FEW,0.00,VWS V14.01,2013-04-29 01:44:00,
2013-04-28 18:49:00,53.9,40.3,30.03,South,188,3.0,6.0,60,0.00,,FEW,0.00,VWS V14.01,2013-04-29 01:49:00,
2013-04-28 18:54:00,53.8,40.7,30.03,SSW,199,0.0,6.0,61,0.00,,FEW,0.00,VWS V14.01,2013-04-29 01:54:00,
2013-04-28 18:59:00,53.6,40.5,30.03,South,172,0.0,6.0,61,0.00,,FEW,0.00,VWS V14.01,2013-04-29 01:59:00,
2013-04-28 19:04:00,53.6,40.9,30.03,South,172,0.0,4.0,62,0.00,,FEW,0.00,VWS V14.01,2013-04-29 02:04:00,
2013-04-28 19:09:00,53.6,41.3,30.03,South,187,4.0,4.0,63,0.00,,FEW,0.00,VWS V14.01,2013-04-29 02:09:00,
2013-04-28 19:14:00,53.5,40.8,30.02,South,184,0.0,4.0,62,0.00,,FEW,0.00,VWS V14.01,2013-04-29 02:14:00,
2013-04-28 19:19:00,53.5,40.8,30.02,South,184,1.0,4.0,62,0.00,,FEW,0.00,VWS V14.01,2013-04-29 02:19:00,
2013-04-28 19:24:00,53.5,41.2,30.02,SSW,194,1.0,4.0,63,0.00,,FEW,0.00,VWS V14.01,2013-04-29 02:24:00,
2013-04-28 19:29:00,53.3,41.0,30.02,SSE,168,1.0,5.0,63,0.00,,FEW,0.00,VWS V14.01,2013-04-29 02:29:00,
2013-04-28 19:34:00,53.3,41.0,30.02,SSE,168,1.0,4.0,63,0.00,,FEW,0.00,VWS V14.01,2013-04-29 02:34:00,
2013-04-28 19:39:00,53.2,41.0,30.02,SSE,166,0.0,4.0,63,0.00,,FEW,0.00,VWS V14.01,2013-04-29 02:39:00,
2013-04-28 19:44:00,53.1,41.7,30.01,South,177,0.0,4.0,65,0.00,,FEW,0.00,VWS V14.01,2013-04-29 02:44:00,
2013-04-28 19:49:00,52.9,41.5,30.01,South,177,0.0,4.0,65,0.00,,FEW,0.00,VWS V14.01,2013-04-29 02:49:00,
2013-04-28 19:54:00,52.8,41.4,30.01,South,182,3.0,5.0,65,0.00,,FEW,0.00,VWS V14.01,2013-04-29 02:54:00,
2013-04-28 19:59:00,52.8,41.8,30.01,South,191,0.0,5.0,66,0.00,,FEW,0.00,VWS V14.01,2013-04-29 02:59:00,
2013-04-28 20:04:00,52.5,41.5,30.01,SE,134,0.0,4.0,66,0.00,,FEW,0.00,VWS V14.01,2013-04-29 03:04:00,
2013-04-28 20:09:00,52.3,42.1,30.01,South,190,2.0,4.0,68,0.00,,FEW,0.00,VWS V14.01,2013-04-29 03:09:00,
2013-04-28 20:14:00,52.2,41.6,30.00,SSW,204,0.0,4.0,67,0.00,,FEW,0.00,VWS V14.01,2013-04-29 03:14:00,
2013-04-28 20:19:00,52.0,41.8,30.00,SSW,204,2.0,4.0,68,0.00,,FEW,0.00,VWS V14.01,2013-04-29 03:19:00,
2013-04-28 20:24:00,51.7,42.2,30.00,ESE,116,1.0,4.0,70,0.00,,FEW,0.00,VWS V14.01,2013-04-29 03:24:00,
2013-04-28 20:29:00,51.4,42.7,30.00,South,183,2.0,6.0,72,0.00,,FEW,0.00,VWS V14.01,2013-04-29 03:29:00,
2013-04-28 20:34:00,51.1,42.8,30.00,SSW,193,0.0,2.0,73,0.00,,FEW,0.00,VWS V14.01,2013-04-29 03:34:00,
2013-04-28 20:39:00,51.0,43.0,30.00,SSE,161,0.0,6.0,74,0.00,,FEW,0.00,VWS V14.01,2013-04-29 03:39:00,
2013-04-28 20:44:00,50.8,42.5,29.99,South,189,1.0,6.0,73,0.00,,FEW,0.00,VWS V14.01,2013-04-29 03:44:00,
2013-04-28 20:49:00,50.5,42.2,29.99,SSW,205,3.0,6.0,73,0.00,,FEW,0.00,VWS V14.01,2013-04-29 03:49:00,
2013-04-28 20:54:00,50.5,42.5,29.99,SSW,193,2.0,6.0,74,0.00,,FEW,0.00,VWS V14.01,2013-04-29 03:54:00,
2013-04-28 20:59:00,50.4,42.8,29.99,SSW,203,2.0,6.0,75,0.01,,FEW,0.01,VWS V14.01,2013-04-29 03:59:00,
2013-04-28 21:01:00,50.4,42.8,29.99,SSW,193,3.0,4.0,75,0.01,,FEW,0.01,VWS V14.01,2013-04-29 04:01:00,
2013-04-28 21:06:00,50.1,42.8,29.99,South,187,1.0,5.0,76,0.01,,FEW,0.01,VWS V14.01,2013-04-29 04:06:00,
2013-04-28 21:12:00,49.5,43.3,29.99,SSW,195,3.0,6.0,79,0.01,,FEW,0.01,VWS V14.01,2013-04-29 04:12:00,
2013-04-28 21:17:00,48.9,43.3,29.98,South,180,3.0,6.0,81,0.02,,FEW,0.02,VWS V14.01,2013-04-29 04:17:00,
2013-04-28 21:22:00,48.5,43.6,29.98,SSW,196,0.0,6.0,83,0.02,,FEW,0.02,VWS V14.01,2013-04-29 04:22:00,
2013-04-28 21:27:00,48.2,43.6,29.98,SSW,196,0.0,6.0,84,0.02,,FEW,0.02,VWS V14.01,2013-04-29 04:27:00,
2013-04-28 21:32:00,48.0,43.7,29.98,SSW,196,0.0,1.0,85,0.03,,FEW,0.03,VWS V14.01,2013-04-29 04:32:00,
2013-04-28 21:37:00,48.0,44.0,29.98,SSW,196,0.0,1.0,86,0.03,,FEW,0.03,VWS V14.01,2013-04-29 04:37:00,
2013-04-28 21:42:00,48.0,44.6,29.98,SSW,196,0.0,1.0,88,0.04,,FEW,0.04,VWS V14.01,2013-04-29 04:42:00,
2013-04-28 21:47:00,48.0,44.6,29.98,SSW,196,0.0,1.0,88,0.04,,FEW,0.04,VWS V14.01,2013-04-29 04:47:00,
2013-04-28 21:52:00,47.7,44.3,29.98,SSW,196,0.0,1.0,88,0.05,,FEW,0.05,VWS V14.01,2013-04-29 04:52:00,
2013-04-28 21:57:00,47.6,44.2,29.98,SSW,196,0.0,1.0,88,0.05,,FEW,0.05,VWS V14.01,2013-04-29 04:57:00,
2013-04-28 22:02:00,47.7,44.6,29.97,SSW,196,0.0,2.0,89,0.05,,FEW,0.06,VWS V14.01,2013-04-29 05:02:00,
2013-04-28 22:07:00,47.7,44.6,29.97,SSW,196,0.0,2.0,89,0.05,,FEW,0.06,VWS V14.01,2013-04-29 05:07:00,
2013-04-28 22:12:00,47.7,44.9,29.97,SSW,196,0.0,2.0,90,0.06,,FEW,0.07,VWS V14.01,2013-04-29 05:12:00,
2013-04-28 22:17:00,47.7,44.9,29.97,SSW,196,0.0,2.0,90,0.06,,FEW,0.07,VWS V14.01,2013-04-29 05:17:00,
2013-04-28 22:22:00,47.6,44.8,29.97,SSW,196,0.0,2.0,90,0.07,,FEW,0.08,VWS V14.01,2013-04-29 05:22:00,
2013-04-28 22:27:00,47.4,44.6,29.97,SSW,196,0.0,2.0,90,0.07,,FEW,0.08,VWS V14.01,2013-04-29 05:27:00,
2013-04-28 22:32:00,47.4,44.9,29.95,SSW,196,0.0,0.0,91,0.06,,FEW,0.08,VWS V14.01,2013-04-29 05:32:00,
2013-04-28 22:37:00,47.3,44.5,29.95,SSW,199,2.0,3.0,90,0.07,,FEW,0.09,VWS V14.01,2013-04-29 05:37:00,
2013-04-28 22:42:00,47.1,44.3,29.95,SSW,199,0.0,3.0,90,0.08,,FEW,0.10,VWS V14.01,2013-04-29 05:42:00,
2013-04-28 22:47:00,47.0,44.5,29.95,SSW,199,0.0,3.0,91,0.08,,FEW,0.10,VWS V14.01,2013-04-29 05:47:00,
2013-04-28 22:52:00,47.0,44.5,29.95,SSW,199,0.0,3.0,91,0.09,,FEW,0.11,VWS V14.01,2013-04-29 05:52:00,
2013-04-28 22:57:00,46.8,44.3,29.95,SSW,199,0.0,3.0,91,0.09,,FEW,0.11,VWS V14.01,2013-04-29 05:57:00,
2013-04-28 23:02:00,46.8,44.3,29.94,SSW,199,0.0,0.0,91,0.06,,FEW,0.12,VWS V14.01,2013-04-29 06:02:00,
2013-04-28 23:07:00,46.7,44.2,29.94,SSW,199,0.0,0.0,91,0.06,,FEW,0.12,VWS V14.01,2013-04-29 06:07:00,
2013-04-28 23:12:00,46.7,44.5,29.94,ESE,115,2.0,3.0,92,0.07,,FEW,0.13,VWS V14.01,2013-04-29 06:12:00,
2013-04-28 23:17:00,46.7,44.5,29.93,ESE,113,2.0,3.0,92,0.07,,FEW,0.13,VWS V14.01,2013-04-29 06:17:00,
2013-04-28 23:22:00,46.4,43.9,29.93,South,174,1.0,6.0,91,0.07,,FEW,0.13,VWS V14.01,2013-04-29 06:22:00,
2013-04-28 23:27:00,46.4,44.2,29.93,SE,137,2.0,6.0,92,0.08,,FEW,0.14,VWS V14.01,2013-04-29 06:27:00,
2013-04-28 23:32:00,46.4,43.9,29.92,South,169,0.0,3.0,91,0.06,,FEW,0.14,VWS V14.01,2013-04-29 06:32:00,
2013-04-28 23:37:00,46.5,44.0,29.92,SE,132,3.0,6.0,91,0.06,,FEW,0.14,VWS V14.01,2013-04-29 06:37:00,
2013-04-28 23:42:00,46.5,44.0,29.92,SE,131,0.0,6.0,91,0.06,,FEW,0.14,VWS V14.01,2013-04-29 06:42:00,
2013-04-28 23:48:00,46.7,44.2,29.91,ESE,118,3.0,6.0,91,0.06,,FEW,0.14,VWS V14.01,2013-04-29 06:48:00,
2013-04-28 23:53:00,46.7,43.9,29.91,ESE,116,6.0,7.0,90,0.07,,FEW,0.15,VWS V14.01,2013-04-29 06:53:00,
2013-04-28 23:58:00,46.8,44.0,29.91,SE,138,3.0,7.0,90,0.07,,FEW,0.15,VWS V14.01,2013-04-29 06:58:00,